createdAt,value
2018-01-27T00:00:39.939Z,16.40
2018-01-27T00:03:07.564Z,18.87
2018-01-27T00:05:35.171Z,17.43
2018-01-27T00:08:02.841Z,15.80
2018-01-27T00:10:30.438Z,17.87
2018-01-27T00:12:58.078Z,15.83
2018-01-27T00:15:25.828Z,17.83
2018-01-27T00:17:53.433Z,18.13
2018-01-27T00:20:21.109Z,16.40
2018-01-27T00:22:52.447Z,17.63
2018-01-27T00:25:20.079Z,16.83
2018-01-27T00:27:47.689Z,16.23
2018-01-27T00:30:15.310Z,17.77
2018-01-27T00:32:42.933Z,18.17
2018-01-27T00:35:10.565Z,16.27
2018-01-27T00:37:38.183Z,17.50
2018-01-27T00:40:05.827Z,16.33
2018-01-27T00:42:33.560Z,17.50
2018-01-27T00:45:01.811Z,16.90
2018-01-27T00:47:29.441Z,16.90
2018-01-27T00:49:57.074Z,15.87
2018-01-27T00:52:24.712Z,16.70
2018-01-27T00:54:52.348Z,16.67
2018-01-27T00:57:19.954Z,17.17
2018-01-27T00:59:47.557Z,17.30
2018-01-27T01:02:15.178Z,16.00
2018-01-27T01:04:42.785Z,17.73
2018-01-27T01:07:10.409Z,17.27
2018-01-27T01:09:38.001Z,15.77
2018-01-27T01:12:05.594Z,16.50
2018-01-27T01:14:33.223Z,15.57
2018-01-27T01:17:00.818Z,15.83
2018-01-27T01:19:28.447Z,16.87
2018-01-27T01:21:56.044Z,16.33
2018-01-27T01:24:23.667Z,17.80
2018-01-27T01:26:51.311Z,18.40
2018-01-27T01:29:18.908Z,15.30
2018-01-27T01:31:46.527Z,16.23
2018-01-27T01:34:14.123Z,17.00
2018-01-27T01:36:42.057Z,16.33
2018-01-27T01:39:09.659Z,15.77
2018-01-27T01:41:37.250Z,17.03
2018-01-27T01:47:06.112Z,15.70
2018-01-27T01:49:33.745Z,15.50
2018-01-27T01:52:01.340Z,17.20
2018-01-27T01:54:28.966Z,17.20
2018-01-27T01:56:56.559Z,17.50
2018-01-27T01:59:24.183Z,15.50
2018-01-27T02:01:51.775Z,15.33
2018-01-27T02:04:19.387Z,16.37
2018-01-27T02:06:47.040Z,16.83
2018-01-27T02:09:14.662Z,16.70
2018-01-27T02:11:42.275Z,17.00
2018-01-27T02:14:09.954Z,16.33
2018-01-27T02:16:37.840Z,15.23
2018-01-27T02:19:05.439Z,15.57
2018-01-27T02:21:33.039Z,17.30
2018-01-27T02:24:00.656Z,15.17
2018-01-27T02:26:28.271Z,17.27
2018-01-27T02:28:55.887Z,17.20
2018-01-27T02:31:23.482Z,18.77
2018-01-27T02:33:51.152Z,16.30
2018-01-27T02:36:18.750Z,16.90
2018-01-27T02:38:46.349Z,15.70
2018-01-27T02:41:13.968Z,17.23
2018-01-27T02:43:41.564Z,16.70
2018-01-27T02:46:09.213Z,17.07
2018-01-27T02:48:36.823Z,16.13
2018-01-27T02:51:04.652Z,16.50
2018-01-27T02:53:32.263Z,16.63
2018-01-27T02:55:59.921Z,16.20
2018-01-27T02:58:27.552Z,15.20
2018-01-27T03:00:55.231Z,16.90
2018-01-27T03:03:23.191Z,17.90
2018-01-27T03:05:50.785Z,16.17
2018-01-27T03:08:18.384Z,15.17
2018-01-27T03:10:46.003Z,14.30
2018-01-27T03:13:13.643Z,15.33
2018-01-27T03:15:41.411Z,15.80
2018-01-27T03:18:09.026Z,17.57
2018-01-27T03:20:36.635Z,15.50
2018-01-27T03:23:04.270Z,16.47
2018-01-27T03:25:31.865Z,17.43
2018-01-27T03:27:59.489Z,17.53
2018-01-27T03:30:27.089Z,16.40
2018-01-27T03:32:54.675Z,14.40
2018-01-27T03:35:22.297Z,16.93
2018-01-27T03:37:49.895Z,17.70
2018-01-27T03:40:17.789Z,16.47
2018-01-27T03:42:45.381Z,15.57
2018-01-27T03:45:12.971Z,15.43
2018-01-27T03:47:40.586Z,16.00
2018-01-27T03:50:08.198Z,14.60
2018-01-27T03:52:35.826Z,16.37
2018-01-27T03:55:03.415Z,16.20
2018-01-27T03:57:31.287Z,14.53
2018-01-27T03:59:58.883Z,15.10
2018-01-27T04:02:26.503Z,15.63
2018-01-27T04:04:54.165Z,15.87
2018-01-27T04:07:21.765Z,14.83
2018-01-27T04:09:49.384Z,16.10
2018-01-27T04:12:16.973Z,15.73
2018-01-27T04:14:44.573Z,15.33
2018-01-27T04:17:12.184Z,15.87
2018-01-27T04:19:39.788Z,16.73
2018-01-27T04:24:41.280Z,14.70
2018-01-27T04:27:08.927Z,16.20
2018-01-27T04:29:36.535Z,14.73
2018-01-27T04:32:04.136Z,15.20
2018-01-27T04:34:31.778Z,14.13
2018-01-27T04:36:59.374Z,15.20
2018-01-27T04:39:26.988Z,14.80
2018-01-27T04:41:54.577Z,14.30
2018-01-27T04:44:22.463Z,14.63
2018-01-27T04:46:50.059Z,12.80
2018-01-27T04:49:17.653Z,14.00
2018-01-27T04:51:45.275Z,13.30
2018-01-27T04:54:12.880Z,14.20
2018-01-27T04:56:40.495Z,14.80
2018-01-27T04:59:08.093Z,13.93
2018-01-27T05:01:35.738Z,12.90
2018-01-27T05:04:03.343Z,14.83
2018-01-27T05:06:30.932Z,15.33
2018-01-27T05:08:58.564Z,13.40
2018-01-27T05:11:26.288Z,12.50
2018-01-27T05:13:53.918Z,13.30
2018-01-27T05:16:21.506Z,13.47
2018-01-27T05:18:49.118Z,13.87
2018-01-27T05:21:16.742Z,13.57
2018-01-27T05:23:44.335Z,12.87
2018-01-27T05:26:11.946Z,13.20
2018-01-27T05:28:39.531Z,15.63
2018-01-27T05:31:07.161Z,12.97
2018-01-27T05:33:34.759Z,13.03
2018-01-27T05:36:02.387Z,14.20
2018-01-27T05:38:30.012Z,13.50
2018-01-27T05:40:57.613Z,13.20
2018-01-27T05:43:25.230Z,13.47
2018-01-27T05:45:52.823Z,12.17
2018-01-27T05:48:20.453Z,12.00
2018-01-27T05:50:48.045Z,12.60
2018-01-27T05:53:15.665Z,14.13
2018-01-27T05:55:43.285Z,12.97
2018-01-27T05:58:10.882Z,11.63
2018-01-27T06:00:38.519Z,11.50
2018-01-27T06:03:06.124Z,14.40
2018-01-27T06:05:33.743Z,13.33
2018-01-27T06:08:01.332Z,11.30
2018-01-27T06:10:28.929Z,13.47
2018-01-27T06:12:56.552Z,12.50
2018-01-27T06:15:24.143Z,12.97
2018-01-27T06:17:51.757Z,12.43
2018-01-27T06:20:19.346Z,12.77
2018-01-27T06:22:46.935Z,13.20
2018-01-27T06:25:14.543Z,12.87
2018-01-27T06:27:42.136Z,14.70
2018-01-27T06:30:09.768Z,13.03
2018-01-27T06:32:37.359Z,12.73
2018-01-27T06:35:04.960Z,13.13
2018-01-27T06:37:32.571Z,11.97
2018-01-27T06:40:00.173Z,10.00
2018-01-27T06:42:27.796Z,12.13
2018-01-27T06:44:55.396Z,11.73
2018-01-27T06:47:22.995Z,11.60
2018-01-27T06:49:50.619Z,11.20
2018-01-27T06:52:18.225Z,12.97
2018-01-27T06:54:45.859Z,12.10
2018-01-27T06:57:13.457Z,11.97
2018-01-27T06:59:41.044Z,10.57
2018-01-27T07:02:08.663Z,10.93
2018-01-27T07:04:36.250Z,11.33
2018-01-27T07:07:04.204Z,10.70
2018-01-27T07:09:31.805Z,11.87
2018-01-27T07:11:59.395Z,11.10
2018-01-27T07:14:27.004Z,10.90
2018-01-27T07:16:54.592Z,10.00
2018-01-27T07:19:22.223Z,11.07
2018-01-27T07:21:49.810Z,12.00
2018-01-27T07:24:17.414Z,11.77
2018-01-27T07:26:45.065Z,11.10
2018-01-27T07:29:12.652Z,10.30
2018-01-27T07:31:40.275Z,9.97
2018-01-27T07:34:07.866Z,11.20
2018-01-27T07:36:35.454Z,10.13
2018-01-27T07:39:03.065Z,10.00
2018-01-27T07:41:30.784Z,10.37
2018-01-27T07:43:58.616Z,10.73
2018-01-27T07:46:26.218Z,11.07
2018-01-27T07:48:53.813Z,10.70
2018-01-27T07:51:21.427Z,11.10
2018-01-27T07:53:49.023Z,10.77
2018-01-27T07:56:16.670Z,10.57
2018-01-27T07:58:44.273Z,11.70
2018-01-27T08:01:11.879Z,11.33
2018-01-27T08:03:39.493Z,10.80
2018-01-27T08:06:07.100Z,11.90
2018-01-27T08:08:34.730Z,12.43
2018-01-27T08:11:02.320Z,11.37
2018-01-27T08:13:30.149Z,10.80
2018-01-27T08:15:57.746Z,11.33
2018-01-27T08:18:25.340Z,10.40
2018-01-27T08:20:52.943Z,10.80
2018-01-27T08:23:20.556Z,11.03
2018-01-27T08:25:48.173Z,10.70
2018-01-27T08:28:15.771Z,13.20
2018-01-27T08:30:43.424Z,10.70
2018-01-27T08:33:11.015Z,10.30
2018-01-27T08:35:38.619Z,11.37
2018-01-27T08:38:06.232Z,10.90
2018-01-27T08:40:33.836Z,12.57
2018-01-27T08:43:01.445Z,11.37
2018-01-27T08:45:29.051Z,10.90
2018-01-27T08:47:56.697Z,10.47
2018-01-27T08:50:24.287Z,11.33
2018-01-27T08:52:51.884Z,10.07
2018-01-27T08:55:19.516Z,10.40
2018-01-27T08:57:47.129Z,10.00
2018-01-27T09:00:14.743Z,10.20
2018-01-27T09:02:42.335Z,9.83
2018-01-27T09:05:10.079Z,9.90
2018-01-27T09:07:37.661Z,9.17
2018-01-27T09:10:05.288Z,9.00
2018-01-27T09:12:32.900Z,8.63
2018-01-27T09:15:00.662Z,8.83
2018-01-27T09:17:28.406Z,7.80
2018-01-27T09:19:56.000Z,8.30
2018-01-27T09:22:23.640Z,7.70
2018-01-27T09:24:51.226Z,8.07
2018-01-27T09:27:18.848Z,7.40
2018-01-27T09:29:46.471Z,7.00
2018-01-27T09:32:14.079Z,7.33
2018-01-27T09:34:41.709Z,10.77
2018-01-27T09:37:09.333Z,12.03
2018-01-27T09:39:37.307Z,12.60
2018-01-27T09:42:04.914Z,12.77
2018-01-27T09:44:32.511Z,12.90
2018-01-27T09:47:00.128Z,11.37
2018-01-27T09:49:27.725Z,12.57
2018-01-27T09:51:55.332Z,13.00
2018-01-27T09:54:22.939Z,10.93
2018-01-27T09:56:50.924Z,11.60
2018-01-27T09:59:18.522Z,11.43
2018-01-27T10:01:46.113Z,13.10
2018-01-27T10:04:13.729Z,12.43
2018-01-27T10:06:41.319Z,12.53
2018-01-27T10:09:08.946Z,12.97
2018-01-27T10:11:36.565Z,12.27
2018-01-27T10:14:04.161Z,12.17
2018-01-27T10:16:31.787Z,11.43
2018-01-27T10:18:59.388Z,11.80
2018-01-27T10:21:27.152Z,11.53
2018-01-27T10:23:54.772Z,11.93
2018-01-27T10:26:22.363Z,11.40
2018-01-27T10:28:49.985Z,11.67
2018-01-27T10:31:17.587Z,12.87
2018-01-27T10:33:45.227Z,10.67
2018-01-27T10:36:12.824Z,9.73
2018-01-27T10:38:40.484Z,10.20
2018-01-27T10:41:08.078Z,10.70
2018-01-27T10:43:35.684Z,10.50
2018-01-27T10:46:03.303Z,8.67
2018-01-27T10:48:30.919Z,10.87
2018-01-27T10:50:58.831Z,8.97
2018-01-27T10:53:26.426Z,10.57
2018-01-27T10:55:54.015Z,9.53
2018-01-27T10:58:21.883Z,9.40
2018-01-27T11:00:49.467Z,9.70
2018-01-27T11:03:17.091Z,10.73
2018-01-27T11:05:44.691Z,9.10
2018-01-27T11:08:12.303Z,10.33
2018-01-27T11:10:39.930Z,7.90
2018-01-27T11:13:07.547Z,9.73
2018-01-27T11:15:35.178Z,9.30
2018-01-27T11:18:02.771Z,10.77
2018-01-27T11:20:30.385Z,8.60
2018-01-27T11:22:57.968Z,9.03
2018-01-27T11:25:25.617Z,10.27
2018-01-27T11:27:53.221Z,11.23
2018-01-27T11:30:20.808Z,9.27
2018-01-27T11:32:48.448Z,9.90
2018-01-27T11:35:16.036Z,11.00
2018-01-27T11:37:43.660Z,8.90
2018-01-27T11:40:11.314Z,10.60
2018-01-27T11:42:38.938Z,10.60
2018-01-27T11:45:06.527Z,9.93
2018-01-27T11:47:34.125Z,10.23
2018-01-27T11:50:01.736Z,10.03
2018-01-27T11:52:29.335Z,10.10
2018-01-27T11:54:56.984Z,9.87
2018-01-27T11:57:24.584Z,9.83
2018-01-27T11:59:52.306Z,10.00
2018-01-27T12:02:19.907Z,10.73
2018-01-27T12:04:47.487Z,9.77
2018-01-27T12:07:15.112Z,11.10
2018-01-27T12:09:42.708Z,11.63
2018-01-27T12:12:10.332Z,10.97
2018-01-27T12:14:38.161Z,10.80
2018-01-27T12:17:05.794Z,9.90
2018-01-27T12:19:33.391Z,10.10
2018-01-27T12:22:00.979Z,11.10
2018-01-27T12:24:28.601Z,9.83
2018-01-27T12:26:56.194Z,8.23
2018-01-27T12:29:23.825Z,9.50
2018-01-27T12:31:51.419Z,11.50
2018-01-27T12:34:19.323Z,9.83
2018-01-27T12:36:46.925Z,15.17
2018-01-27T12:39:14.545Z,11.60
2018-01-27T12:41:42.186Z,13.27
2018-01-27T12:44:09.804Z,10.63
2018-01-27T12:46:37.424Z,11.57
2018-01-27T12:49:05.898Z,13.20
2018-01-27T12:51:33.732Z,12.07
2018-01-27T12:54:01.326Z,12.77
2018-01-27T12:56:28.940Z,14.33
2018-01-27T12:58:56.562Z,11.00
2018-01-27T13:01:24.154Z,11.57
2018-01-27T13:03:51.799Z,10.77
2018-01-27T13:06:19.405Z,9.90
2018-01-27T13:08:47.059Z,10.33
2018-01-27T13:11:14.668Z,10.67
2018-01-27T13:13:42.260Z,13.13
2018-01-27T13:16:09.906Z,12.43
2018-01-27T13:18:37.493Z,11.80
2018-01-27T13:21:05.152Z,14.30
2018-01-27T13:23:32.735Z,14.30
2018-01-27T13:26:00.685Z,14.00
2018-01-27T13:28:28.290Z,14.00
2018-01-27T13:30:55.883Z,14.50
2018-01-27T13:33:23.499Z,15.47
2018-01-27T13:35:51.117Z,15.73
2018-01-27T13:38:18.750Z,16.10
2018-01-27T13:40:46.350Z,17.00
2018-01-27T13:43:14.119Z,19.30
2018-01-27T13:45:41.732Z,15.80
2018-01-27T13:48:09.328Z,16.43
2018-01-27T13:50:36.991Z,15.70
2018-01-27T13:53:04.556Z,16.70
2018-01-27T13:55:32.223Z,16.53
2018-01-27T13:57:59.820Z,15.93
2018-01-27T14:00:27.445Z,17.27
2018-01-27T14:02:55.039Z,18.13
2018-01-27T14:05:22.968Z,16.30
2018-01-27T14:07:50.566Z,17.23
2018-01-27T14:10:18.176Z,16.10
2018-01-27T14:12:45.968Z,16.60
2018-01-27T14:15:13.561Z,15.73
2018-01-27T14:17:41.172Z,15.90
2018-01-27T14:20:08.753Z,16.23
2018-01-27T14:22:36.595Z,14.80
2018-01-27T14:25:04.192Z,16.40
2018-01-27T14:27:31.830Z,16.10
2018-01-27T14:29:59.448Z,16.50
2018-01-27T14:32:27.062Z,15.13
2018-01-27T14:34:54.674Z,16.27
2018-01-27T14:37:22.265Z,16.60
2018-01-27T14:39:49.883Z,15.27
2018-01-27T14:42:17.491Z,15.80
2018-01-27T14:44:45.088Z,14.97
2018-01-27T14:47:12.713Z,14.40
2018-01-27T14:49:40.307Z,16.03
2018-01-27T14:52:08.052Z,15.13
2018-01-27T14:54:35.640Z,16.67
2018-01-27T14:57:03.275Z,17.27
2018-01-27T14:59:42.903Z,18.10
2018-01-27T15:02:11.504Z,18.70
2018-01-27T15:04:39.118Z,20.23
2018-01-27T15:07:06.723Z,19.80
2018-01-27T15:09:34.343Z,20.07
2018-01-27T15:12:01.936Z,20.07
2018-01-27T15:14:29.574Z,23.00
2018-01-27T15:16:57.164Z,19.70
2018-01-27T15:19:24.902Z,19.60
2018-01-27T15:21:52.534Z,22.47
2018-01-27T15:24:20.133Z,22.17
2018-01-27T15:26:47.747Z,21.90
2018-01-27T15:29:15.340Z,19.77
2018-01-27T15:31:43.018Z,20.33
2018-01-27T15:34:10.624Z,21.33
2018-01-27T15:36:38.546Z,20.63
2018-01-27T15:39:06.153Z,21.80
2018-01-27T15:41:33.742Z,20.80
2018-01-27T15:44:01.370Z,22.20
2018-01-27T15:46:28.975Z,21.93
2018-01-27T15:48:56.655Z,22.40
2018-01-27T15:51:24.249Z,21.60
2018-01-27T15:53:51.855Z,22.37
2018-01-27T15:56:19.448Z,19.20
2018-01-27T15:58:47.309Z,22.03
2018-01-27T16:01:14.908Z,22.60
2018-01-27T16:03:42.500Z,22.20
2018-01-27T16:06:10.155Z,21.87
2018-01-27T16:08:37.757Z,19.30
2018-01-27T16:11:05.373Z,22.10
2018-01-27T16:13:32.980Z,21.67
2018-01-27T16:16:00.591Z,20.07
2018-01-27T16:18:28.203Z,20.60
2018-01-27T16:20:55.809Z,21.70
2018-01-27T16:23:23.429Z,20.23
2018-01-27T16:25:51.065Z,22.20
2018-01-27T16:28:18.836Z,21.27
2018-01-27T16:30:46.432Z,20.20
2018-01-27T16:33:14.020Z,19.20
2018-01-27T16:35:41.714Z,22.50
2018-01-27T16:38:09.345Z,22.00
2018-01-27T16:40:37.046Z,21.87
2018-01-27T16:43:04.639Z,21.90
2018-01-27T16:45:32.267Z,19.03
2018-01-27T16:47:59.872Z,20.77
2018-01-27T16:50:27.482Z,20.80
2018-01-27T16:52:55.131Z,21.90
2018-01-27T16:55:22.752Z,20.77
2018-01-27T16:57:50.375Z,19.67
2018-01-27T17:00:17.979Z,22.00
2018-01-27T17:02:45.797Z,22.30
2018-01-27T17:05:13.412Z,22.07
2018-01-27T17:07:41.014Z,21.77
2018-01-27T17:10:08.631Z,22.47
2018-01-27T17:12:36.222Z,22.63
2018-01-27T17:15:03.868Z,20.07
2018-01-27T17:17:31.464Z,19.80
2018-01-27T17:19:59.079Z,22.77
2018-01-27T17:22:26.711Z,22.23
2018-01-27T17:24:54.315Z,24.10
2018-01-27T17:27:21.935Z,24.00
2018-01-27T17:29:49.525Z,23.43
2018-01-27T17:32:17.334Z,24.37
2018-01-27T17:34:44.925Z,22.33
2018-01-27T17:37:12.529Z,24.73
2018-01-27T17:39:40.152Z,21.93
2018-01-27T17:42:07.793Z,23.40
2018-01-27T17:44:35.409Z,24.10
2018-01-27T17:47:03.005Z,21.77
2018-01-27T17:49:31.081Z,22.20
2018-01-27T17:51:58.710Z,23.63
2018-01-27T17:54:26.362Z,21.90
2018-01-27T17:56:54.025Z,20.33
2018-01-27T17:59:21.622Z,21.60
2018-01-27T18:01:50.161Z,21.83
2018-01-27T18:04:17.859Z,18.23
2018-01-27T18:06:45.628Z,20.27
2018-01-27T18:09:13.238Z,21.30
2018-01-27T18:11:40.859Z,20.50
2018-01-27T18:14:08.470Z,21.87
2018-01-27T18:16:36.072Z,21.80
2018-01-27T18:19:03.691Z,23.43
2018-01-27T18:21:31.292Z,24.97
2018-01-27T18:23:59.155Z,25.43
2018-01-27T18:26:26.837Z,23.30
2018-01-27T18:28:54.428Z,23.73
2018-01-27T18:31:22.245Z,22.67
2018-01-27T18:33:49.875Z,23.57
2018-01-27T18:36:17.488Z,22.43
2018-01-27T18:38:45.091Z,21.37
2018-01-27T18:41:12.952Z,22.30
2018-01-27T18:43:40.549Z,22.60
2018-01-27T18:46:08.154Z,24.73
2018-01-27T18:48:35.770Z,21.10
2018-01-27T18:51:03.369Z,23.87
2018-01-27T18:53:30.981Z,22.43
2018-01-27T18:55:58.576Z,22.30
2018-01-27T18:58:26.207Z,21.90
2018-01-27T19:00:53.797Z,23.00
2018-01-27T19:03:21.400Z,23.10
2018-01-27T19:05:49.035Z,21.37
2018-01-27T19:08:17.643Z,22.90
2018-01-27T19:10:45.264Z,19.97
2018-01-27T19:13:12.854Z,22.77
2018-01-27T19:15:40.679Z,22.30
2018-01-27T19:18:08.272Z,20.63
2018-01-27T19:20:35.868Z,22.97
2018-01-27T19:23:03.531Z,21.37
2018-01-27T19:25:31.128Z,24.00
2018-01-27T19:27:58.808Z,22.70
2018-01-27T19:30:26.449Z,22.30
2018-01-27T19:32:54.220Z,26.00
2018-01-27T19:35:21.914Z,21.70
2018-01-27T19:37:49.509Z,22.00
2018-01-27T19:40:17.141Z,22.90
2018-01-27T19:42:44.739Z,21.73
2018-01-27T19:45:12.355Z,22.37
2018-01-27T19:47:39.955Z,21.70
2018-01-27T19:50:07.852Z,21.03
2018-01-27T19:52:35.999Z,20.60
2018-01-27T19:55:04.017Z,22.97
2018-01-27T19:57:31.652Z,20.57
2018-01-27T19:59:59.259Z,21.53
2018-01-27T20:02:26.883Z,22.67
2018-01-27T20:04:54.475Z,20.57
2018-01-27T20:07:22.607Z,19.77
2018-01-27T20:09:50.206Z,20.93
2018-01-27T20:12:17.830Z,19.93
2018-01-27T20:14:45.447Z,22.70
2018-01-27T20:17:13.055Z,20.60
2018-01-27T20:19:40.719Z,24.50
2018-01-27T20:22:08.310Z,24.63
2018-01-27T20:24:36.150Z,26.63
2018-01-27T20:27:03.757Z,23.33
2018-01-27T20:29:31.355Z,23.60
2018-01-27T20:31:58.987Z,22.60
2018-01-27T20:34:26.584Z,23.50
2018-01-27T20:36:54.212Z,25.97
2018-01-27T20:39:21.817Z,24.97
2018-01-27T20:41:49.459Z,22.90
2018-01-27T20:44:17.053Z,24.20
2018-01-27T20:46:44.646Z,22.20
2018-01-27T20:49:12.281Z,22.63
2018-01-27T20:51:39.873Z,23.40
2018-01-27T20:54:07.495Z,23.77
2018-01-27T20:56:35.084Z,23.17
2018-01-27T20:59:02.716Z,24.03
2018-01-27T21:01:30.306Z,25.10
2018-01-27T21:03:58.115Z,24.03
2018-01-27T21:06:25.820Z,26.58
2018-01-27T21:08:53.423Z,27.77
2018-01-27T21:11:21.131Z,29.10
2018-01-27T21:13:48.819Z,24.90
2018-01-27T21:16:16.537Z,24.50
2018-01-27T21:18:44.209Z,22.83
2018-01-27T21:21:11.914Z,21.95
2018-01-27T21:23:39.594Z,24.80
2018-01-27T21:26:07.288Z,21.45
2018-01-27T21:28:34.997Z,24.45
2018-01-27T21:31:02.724Z,20.40
2018-01-27T21:33:30.408Z,19.73
2018-01-27T21:35:58.084Z,19.48
2018-01-27T21:38:25.791Z,22.62
2018-01-27T21:40:53.489Z,20.67
2018-01-27T21:43:21.201Z,19.12
2018-01-27T21:45:48.890Z,22.95
2018-01-27T21:48:16.544Z,25.03
2018-01-27T21:50:44.221Z,24.83
2018-01-27T21:53:11.984Z,21.48
2018-01-27T21:55:39.689Z,20.90
2018-01-27T21:58:07.395Z,17.98
2018-01-27T22:00:35.104Z,17.62
2018-01-27T22:03:02.779Z,18.80
2018-01-27T22:05:30.440Z,17.80
2018-01-27T22:07:58.133Z,17.17
2018-01-27T22:10:25.801Z,20.12
2018-01-27T22:12:53.436Z,19.47
2018-01-27T22:15:21.120Z,18.10
2018-01-27T22:17:48.827Z,20.52
2018-01-27T22:20:16.496Z,22.48
2018-01-27T22:22:44.324Z,20.10
2018-01-27T22:25:11.995Z,22.92
2018-01-27T22:27:39.692Z,20.37
2018-01-27T22:30:07.432Z,22.00
2018-01-27T22:32:35.121Z,24.98
2018-01-27T22:35:02.975Z,24.58
2018-01-27T22:37:35.247Z,24.20
2018-01-27T22:40:03.193Z,23.40
2018-01-27T22:42:30.897Z,24.65
2018-01-27T22:44:58.579Z,22.92
2018-01-27T22:47:26.276Z,23.42
2018-01-27T22:49:53.954Z,26.58
2018-01-27T22:52:21.651Z,29.85
2018-01-27T22:54:49.250Z,29.93
2018-01-27T22:57:16.887Z,29.40
2018-01-27T22:59:44.568Z,30.55
2018-01-27T23:02:12.171Z,27.30
2018-01-27T23:04:39.942Z,24.90
2018-01-27T23:07:07.583Z,26.90
2018-01-27T23:09:35.211Z,25.50
2018-01-27T23:12:02.806Z,25.17
2018-01-27T23:14:30.452Z,29.80
2018-01-27T23:16:58.065Z,26.80
2018-01-27T23:19:25.684Z,29.57
2018-01-27T23:21:53.321Z,26.40
2018-01-27T23:24:20.937Z,38.30
2018-01-27T23:26:48.569Z,48.73
2018-01-27T23:29:16.173Z,36.27
2018-01-27T23:31:43.827Z,33.27
2018-01-27T23:34:11.425Z,25.23
2018-01-27T23:36:39.039Z,34.80
2018-01-27T23:39:06.663Z,60.13
2018-01-27T23:41:34.640Z,36.90
2018-01-27T23:44:02.253Z,34.50
2018-01-27T23:46:29.843Z,35.83
2018-01-27T23:48:57.480Z,66.80
2018-01-27T23:51:25.151Z,43.38
2018-01-27T23:53:52.756Z,28.17
2018-01-27T23:56:20.388Z,25.67
2018-01-27T23:58:47.990Z,26.57
